createdAt,value
2023-01-22T00:01:42.722Z,-1.70
2023-01-22T00:04:10.492Z,-1.80
2023-01-22T00:06:38.305Z,-1.80
2023-01-22T00:09:06.268Z,-2.00
2023-01-22T00:11:34.058Z,-2.00
2023-01-22T00:14:03.215Z,-1.80
2023-01-22T00:16:31.004Z,-1.80
2023-01-22T00:18:58.758Z,-1.70
2023-01-22T00:21:27.692Z,-1.70
2023-01-22T00:23:55.452Z,-1.90
2023-01-22T00:26:23.333Z,-1.80
2023-01-22T00:28:51.086Z,-1.90
2023-01-22T00:31:20.619Z,-2.00
2023-01-22T00:33:48.523Z,-2.00
2023-01-22T00:36:17.487Z,-2.00
2023-01-22T00:38:45.344Z,-2.00
2023-01-22T00:41:13.343Z,-2.00
2023-01-22T00:43:41.122Z,-2.00
2023-01-22T00:46:09.175Z,-2.00
2023-01-22T00:48:38.387Z,-2.00
2023-01-22T00:51:08.591Z,-2.10
2023-01-22T00:53:36.476Z,-2.00
2023-01-22T00:56:04.507Z,-2.10
2023-01-22T00:58:32.305Z,-2.00
2023-01-22T01:01:00.627Z,-1.10
2023-01-22T01:03:30.139Z,-1.70
2023-01-22T01:06:00.205Z,-1.30
2023-01-22T01:08:28.661Z,-1.70
2023-01-22T01:10:56.732Z,-1.80
2023-01-22T01:13:24.728Z,-1.80
2023-01-22T01:15:59.706Z,-1.50
2023-01-22T01:18:27.472Z,-1.70
2023-01-22T01:20:55.744Z,-1.80
2023-01-22T01:23:24.859Z,-1.90
2023-01-22T01:25:53.169Z,-1.90
2023-01-22T01:28:20.969Z,-1.90
2023-01-22T01:30:48.788Z,-2.00
2023-01-22T01:33:16.575Z,-2.10
2023-01-22T01:35:44.358Z,-2.20
2023-01-22T01:38:12.094Z,-2.20
2023-01-22T01:40:44.432Z,-2.10
2023-01-22T01:43:18.399Z,-2.00
2023-01-22T01:45:46.201Z,-2.10
2023-01-22T01:48:18.859Z,-2.00
2023-01-22T01:50:48.567Z,-2.10
2023-01-22T01:53:16.353Z,-2.10
2023-01-22T01:55:45.480Z,-2.10
2023-01-22T01:58:21.321Z,-2.10
2023-01-22T02:00:49.375Z,-2.10
2023-01-22T02:03:17.214Z,-2.20
2023-01-22T02:05:45.005Z,-2.10
2023-01-22T02:08:12.788Z,-2.00
2023-01-22T02:10:40.555Z,-1.90
2023-01-22T02:13:11.120Z,-1.90
2023-01-22T02:15:39.338Z,-1.90
2023-01-22T02:18:07.167Z,-2.10
2023-01-22T02:20:37.527Z,-2.20
2023-01-22T02:23:05.375Z,-2.30
2023-01-22T02:25:36.273Z,-2.30
2023-01-22T02:28:04.052Z,-2.40
2023-01-22T02:30:31.854Z,-2.10
2023-01-22T02:32:59.640Z,-2.00
2023-01-22T02:35:27.432Z,-2.20
2023-01-22T02:37:56.542Z,-2.20
2023-01-22T02:40:24.297Z,-2.10
2023-01-22T02:42:52.353Z,-2.10
2023-01-22T02:45:20.158Z,-2.30
2023-01-22T02:47:47.942Z,-2.10
2023-01-22T02:50:16.005Z,-2.20
2023-01-22T02:52:43.978Z,-2.30
2023-01-22T02:55:13.080Z,-2.20
2023-01-22T02:57:40.849Z,-2.20
2023-01-22T03:00:10.020Z,-2.30
2023-01-22T03:02:37.798Z,-2.20
2023-01-22T03:05:06.222Z,-2.10
2023-01-22T03:07:41.932Z,-2.20
2023-01-22T03:10:14.442Z,-2.30
2023-01-22T03:12:59.678Z,-2.30
2023-01-22T03:15:45.161Z,-2.20
2023-01-22T03:18:30.607Z,-2.20
2023-01-22T03:21:16.861Z,-2.10
2023-01-22T03:23:45.362Z,-2.20
2023-01-22T03:26:14.507Z,-2.40
2023-01-22T03:28:42.326Z,-2.40
2023-01-22T03:31:10.250Z,-2.20
2023-01-22T03:33:38.031Z,-2.30
2023-01-22T03:36:07.325Z,-2.40
2023-01-22T03:38:35.197Z,-2.30
2023-01-22T03:41:04.313Z,-2.10
2023-01-22T03:43:33.838Z,-2.10
2023-01-22T03:46:03.558Z,-2.20
2023-01-22T03:48:31.340Z,-2.40
2023-01-22T03:51:03.976Z,-2.30
2023-01-22T03:53:31.764Z,-2.30
2023-01-22T03:56:00.080Z,-2.30
2023-01-22T03:58:27.877Z,-2.20
2023-01-22T04:00:57.871Z,-2.30
2023-01-22T04:03:27.007Z,-2.30
2023-01-22T04:05:55.049Z,-2.30
2023-01-22T04:08:22.993Z,-2.40
2023-01-22T04:10:50.762Z,-2.50
2023-01-22T04:13:18.574Z,-2.50
2023-01-22T04:15:46.380Z,-2.20
2023-01-22T04:18:15.476Z,-2.10
2023-01-22T04:20:43.250Z,-2.20
2023-01-22T04:23:11.094Z,-2.20
2023-01-22T04:25:38.855Z,-2.10
2023-01-22T04:28:08.472Z,-2.20
2023-01-22T04:30:36.281Z,-2.10
2023-01-22T04:33:04.223Z,-2.20
2023-01-22T04:35:33.363Z,-2.20
2023-01-22T04:38:01.332Z,-2.20
2023-01-22T04:40:29.087Z,-2.00
2023-01-22T04:42:56.850Z,-2.00
2023-01-22T04:45:24.625Z,-2.10
2023-01-22T04:47:52.369Z,-2.40
2023-01-22T04:50:20.975Z,-2.10
2023-01-22T04:52:51.004Z,-1.20
2023-01-22T04:55:18.856Z,-1.70
2023-01-22T04:57:46.629Z,-1.90
2023-01-22T05:00:15.383Z,-1.50
2023-01-22T05:02:43.244Z,-1.70
2023-01-22T05:05:11.239Z,-2.00
2023-01-22T05:07:39.004Z,-2.20
2023-01-22T05:10:09.373Z,-2.30
2023-01-22T05:12:37.163Z,-2.40
2023-01-22T05:15:15.002Z,-2.50
2023-01-22T05:17:50.451Z,-1.10
2023-01-22T05:20:18.724Z,-1.80
2023-01-22T05:22:46.681Z,-2.20
2023-01-22T05:25:15.892Z,-2.30
2023-01-22T05:27:43.697Z,-2.40
2023-01-22T05:30:12.436Z,-2.40
2023-01-22T05:32:40.243Z,-2.40
2023-01-22T05:35:08.231Z,-2.20
2023-01-22T05:37:36.073Z,-2.40
2023-01-22T05:40:05.342Z,-2.50
2023-01-22T05:42:34.555Z,-2.50
2023-01-22T05:45:02.325Z,-2.50
2023-01-22T05:47:30.132Z,-2.50
2023-01-22T05:49:57.902Z,-2.50
2023-01-22T05:52:25.648Z,-2.50
2023-01-22T05:54:53.437Z,-2.40
2023-01-22T05:57:21.191Z,-2.50
2023-01-22T05:59:50.293Z,-2.60
2023-01-22T06:02:18.090Z,-2.60
2023-01-22T06:04:45.908Z,-2.60
2023-01-22T06:07:13.741Z,-2.50
2023-01-22T06:09:41.542Z,-2.50
2023-01-22T06:12:09.310Z,-2.60
2023-01-22T06:14:37.069Z,-2.60
2023-01-22T06:17:06.197Z,-2.70
2023-01-22T06:19:33.985Z,-2.70
2023-01-22T06:22:01.769Z,-2.60
2023-01-22T06:24:29.551Z,-2.60
2023-01-22T06:26:57.646Z,-2.60
2023-01-22T06:29:25.400Z,-2.70
2023-01-22T06:31:53.188Z,-2.70
2023-01-22T06:34:22.309Z,-2.80
2023-01-22T06:36:50.060Z,-2.70
2023-01-22T06:39:17.801Z,-2.70
2023-01-22T06:41:45.581Z,-2.70
2023-01-22T06:44:13.339Z,-2.70
2023-01-22T06:46:41.151Z,-2.70
2023-01-22T06:49:10.573Z,-2.70
2023-01-22T06:51:39.703Z,-2.80
2023-01-22T06:54:07.524Z,-2.80
2023-01-22T06:56:35.306Z,-2.70
2023-01-22T06:59:03.092Z,-2.80
2023-01-22T07:01:30.919Z,-2.80
2023-01-22T07:03:58.729Z,-2.90
2023-01-22T07:06:26.612Z,-2.60
2023-01-22T07:08:56.288Z,-2.70
2023-01-22T07:11:24.306Z,-2.40
2023-01-22T07:13:52.051Z,-2.80
2023-01-22T07:16:19.841Z,-2.80
2023-01-22T07:18:47.655Z,-2.70
2023-01-22T07:21:15.520Z,-2.60
2023-01-22T07:23:43.259Z,-2.90
2023-01-22T07:26:12.360Z,-3.10
2023-01-22T07:28:40.142Z,-3.10
2023-01-22T07:31:10.938Z,-3.20
2023-01-22T07:33:38.795Z,-3.20
2023-01-22T07:36:07.552Z,-3.30
2023-01-22T07:38:35.310Z,-3.20
2023-01-22T07:41:04.337Z,-3.20
2023-01-22T07:43:34.751Z,-3.10
2023-01-22T07:46:02.834Z,-3.20
2023-01-22T07:48:30.773Z,-3.20
2023-01-22T07:51:00.432Z,-3.10
2023-01-22T07:53:28.204Z,-2.90
2023-01-22T07:55:56.090Z,-2.80
2023-01-22T07:58:23.884Z,-2.50
2023-01-22T08:00:53.452Z,-2.50
2023-01-22T08:03:21.260Z,-2.60
2023-01-22T08:05:49.148Z,-2.70
2023-01-22T08:08:17.964Z,-2.90
2023-01-22T08:10:45.781Z,-2.50
2023-01-22T08:13:13.596Z,-2.40
2023-01-22T08:15:42.712Z,-2.10
2023-01-22T08:18:12.002Z,-2.20
2023-01-22T08:20:39.748Z,-2.20
2023-01-22T08:23:07.507Z,-2.10
2023-01-22T08:25:35.262Z,-2.30
2023-01-22T08:28:03.512Z,-2.20
2023-01-22T08:30:31.297Z,-2.20
2023-01-22T08:32:59.129Z,-2.10
2023-01-22T08:35:28.220Z,-2.10
2023-01-22T08:37:58.779Z,-2.00
2023-01-22T08:40:26.551Z,-1.90
2023-01-22T08:42:54.506Z,-1.80
2023-01-22T08:45:22.372Z,-2.10
2023-01-22T08:47:51.470Z,-2.30
2023-01-22T08:50:19.888Z,-2.20
2023-01-22T08:52:49.256Z,-1.70
2023-01-22T08:55:17.132Z,-1.60
2023-01-22T08:57:44.884Z,-1.50
2023-01-22T09:00:13.518Z,-1.40
2023-01-22T09:02:41.280Z,-1.10
2023-01-22T09:05:09.821Z,-1.20
2023-01-22T09:07:37.609Z,-1.10
2023-01-22T09:10:08.203Z,-0.70
2023-01-22T09:12:36.266Z,-0.60
2023-01-22T09:15:04.112Z,-0.20
2023-01-22T09:17:31.919Z,0.10
2023-01-22T09:19:59.694Z,0.00
2023-01-22T09:22:27.482Z,0.10
2023-01-22T09:24:55.620Z,0.10
2023-01-22T09:27:24.737Z,0.20
2023-01-22T09:29:52.496Z,-0.10
2023-01-22T09:32:20.275Z,0.00
2023-01-22T09:34:48.143Z,0.20
2023-01-22T09:37:16.167Z,0.30
2023-01-22T09:39:43.964Z,0.20
2023-01-22T09:42:13.622Z,0.40
2023-01-22T09:44:44.133Z,0.50
2023-01-22T09:47:12.892Z,-0.20
2023-01-22T09:49:44.376Z,0.60
2023-01-22T09:52:12.122Z,0.90
2023-01-22T09:54:39.885Z,0.90
2023-01-22T09:57:07.781Z,0.70
2023-01-22T09:59:38.620Z,1.20
2023-01-22T10:02:18.824Z,1.60
2023-01-22T10:04:46.771Z,1.70
2023-01-22T10:07:17.967Z,1.70
2023-01-22T10:09:50.678Z,1.90
2023-01-22T10:12:18.426Z,1.90
2023-01-22T10:14:46.221Z,1.80
2023-01-22T10:17:19.456Z,2.00
2023-01-22T10:19:49.039Z,1.70
2023-01-22T10:22:19.755Z,1.20
2023-01-22T10:24:47.542Z,0.90
2023-01-22T10:27:17.422Z,0.70
2023-01-22T10:29:45.543Z,0.70
2023-01-22T10:32:20.190Z,0.80
2023-01-22T10:34:59.507Z,0.80
2023-01-22T10:37:27.311Z,0.60
2023-01-22T10:39:58.045Z,0.50
2023-01-22T10:42:26.756Z,0.50
2023-01-22T10:44:58.688Z,0.50
2023-01-22T10:47:28.587Z,0.40
2023-01-22T10:50:04.634Z,0.30
2023-01-22T10:52:36.999Z,0.40
2023-01-22T10:55:05.017Z,0.30
2023-01-22T10:57:34.065Z,0.20
2023-01-22T11:00:07.149Z,0.20
2023-01-22T11:02:36.762Z,0.30
2023-01-22T11:05:26.126Z,0.40
2023-01-22T11:07:54.436Z,0.40
2023-01-22T11:10:24.734Z,0.50
2023-01-22T11:12:53.411Z,0.40
2023-01-22T11:15:24.110Z,0.40
2023-01-22T11:17:54.128Z,0.40
2023-01-22T11:20:23.624Z,0.10
2023-01-22T11:22:59.231Z,0.00
2023-01-22T11:25:37.144Z,-0.10
2023-01-22T11:28:09.714Z,-0.10
2023-01-22T11:30:53.740Z,0.00
2023-01-22T11:33:38.347Z,-0.10
2023-01-22T11:36:09.809Z,-0.20
2023-01-22T11:38:41.508Z,-0.20
2023-01-22T11:41:19.027Z,-0.10
2023-01-22T11:43:57.344Z,-0.20
2023-01-22T11:46:32.366Z,-0.10
2023-01-22T11:49:07.197Z,-0.20
2023-01-22T11:51:37.356Z,-0.30
2023-01-22T11:54:17.346Z,0.10
2023-01-22T11:56:58.056Z,0.10
2023-01-22T11:59:33.652Z,0.00
2023-01-22T12:02:19.932Z,0.20
2023-01-22T12:05:09.689Z,0.10
2023-01-22T12:07:49.417Z,-0.10
2023-01-22T12:10:33.723Z,0.00
2023-01-22T12:13:05.987Z,0.20
2023-01-22T12:15:40.436Z,-0.20
2023-01-22T12:18:42.745Z,-0.10
2023-01-22T12:21:15.185Z,0.40
2023-01-22T12:23:45.004Z,0.50
2023-01-22T12:26:14.552Z,0.50
2023-01-22T12:28:44.082Z,0.30
2023-01-22T12:31:14.181Z,0.50
2023-01-22T12:33:42.746Z,0.30
2023-01-22T12:36:16.331Z,0.20
2023-01-22T12:38:46.122Z,0.00
2023-01-22T12:41:22.439Z,-0.10
2023-01-22T12:43:52.208Z,-0.30
2023-01-22T12:46:25.640Z,-0.40
2023-01-22T12:49:05.056Z,-0.40
2023-01-22T12:51:39.640Z,-0.40
2023-01-22T12:54:18.196Z,-0.20
2023-01-22T12:56:46.003Z,-0.30
2023-01-22T12:59:30.876Z,-0.30
2023-01-22T13:02:02.728Z,-0.30
2023-01-22T13:04:30.825Z,-0.20
2023-01-22T13:07:07.089Z,-0.10
2023-01-22T13:09:36.975Z,-0.20
2023-01-22T13:12:11.162Z,-0.20
2023-01-22T13:14:42.769Z,-0.30
2023-01-22T13:17:18.744Z,-0.20
2023-01-22T13:19:46.624Z,-0.20
2023-01-22T13:22:17.579Z,-0.30
2023-01-22T13:24:51.349Z,-0.30
2023-01-22T13:27:24.225Z,-0.30
2023-01-22T13:29:52.059Z,-0.50
2023-01-22T13:32:21.275Z,-0.60
2023-01-22T13:34:49.112Z,-0.50
2023-01-22T13:37:23.614Z,-0.50
2023-01-22T13:39:51.404Z,-0.40
2023-01-22T13:42:19.299Z,-0.40
2023-01-22T13:44:49.120Z,-0.30
2023-01-22T13:47:26.259Z,-0.20
2023-01-22T13:49:54.066Z,0.00
2023-01-22T13:52:23.211Z,-0.10
2023-01-22T13:54:56.151Z,-0.20
2023-01-22T13:57:23.970Z,-0.20
2023-01-22T13:59:55.299Z,-0.10
2023-01-22T14:02:23.917Z,-0.20
2023-01-22T14:04:51.797Z,-0.20
2023-01-22T14:07:27.855Z,-0.20
2023-01-22T14:09:55.992Z,-0.30
2023-01-22T14:12:25.147Z,-0.20
2023-01-22T14:14:53.228Z,-0.10
2023-01-22T14:17:25.083Z,-0.20
2023-01-22T14:19:52.951Z,-0.10
2023-01-22T14:22:20.870Z,-0.20
2023-01-22T14:24:52.498Z,-0.10
2023-01-22T14:27:20.814Z,-0.20
2023-01-22T14:29:48.690Z,-0.20
2023-01-22T14:32:16.514Z,-0.20
2023-01-22T14:34:44.335Z,-0.40
2023-01-22T14:37:15.643Z,-0.30
2023-01-22T14:39:43.535Z,-0.30
2023-01-22T14:42:12.694Z,-0.30
2023-01-22T14:44:40.555Z,-0.40
2023-01-22T14:47:08.368Z,-0.30
2023-01-22T14:49:36.448Z,-0.50
2023-01-22T14:52:04.523Z,-0.30
2023-01-22T14:54:32.349Z,-0.20
2023-01-22T14:57:03.258Z,-0.40
2023-01-22T14:59:32.448Z,-0.40
2023-01-22T15:02:00.308Z,-0.30
2023-01-22T15:04:28.257Z,-0.50
2023-01-22T15:06:56.061Z,-0.50
2023-01-22T15:09:24.967Z,-0.60
2023-01-22T15:11:52.760Z,-0.70
2023-01-22T15:14:20.572Z,-0.60
2023-01-22T15:16:49.925Z,-0.60
2023-01-22T15:19:18.615Z,-0.60
2023-01-22T15:21:46.639Z,-0.50
2023-01-22T15:24:14.458Z,-0.40
2023-01-22T15:26:42.834Z,-0.40
2023-01-22T15:29:12.215Z,-0.40
2023-01-22T15:31:40.334Z,-0.50
2023-01-22T15:34:09.833Z,-0.50
2023-01-22T15:36:39.458Z,-0.40
2023-01-22T15:39:07.468Z,-0.50
2023-01-22T15:41:36.225Z,-0.60
2023-01-22T15:44:05.411Z,-0.40
2023-01-22T15:46:33.935Z,-0.60
2023-01-22T15:49:01.904Z,-0.50
2023-01-22T15:51:31.044Z,-0.70
2023-01-22T15:53:59.928Z,-0.30
2023-01-22T15:56:29.061Z,-0.40
2023-01-22T15:58:57.131Z,-0.50
2023-01-22T16:01:25.604Z,-0.70
2023-01-22T16:03:53.565Z,-0.80
2023-01-22T16:06:23.240Z,-0.70
2023-01-22T16:08:52.998Z,-0.70
2023-01-22T16:11:20.964Z,-0.70
2023-01-22T16:13:48.791Z,-0.70
2023-01-22T16:16:18.660Z,-1.00
2023-01-22T16:18:46.636Z,-1.00
2023-01-22T16:21:14.552Z,-1.00
2023-01-22T16:23:43.220Z,-1.00
2023-01-22T16:26:14.645Z,-1.00
2023-01-22T16:28:42.554Z,-1.00
2023-01-22T16:31:11.245Z,-1.00
2023-01-22T16:33:40.200Z,-1.10
2023-01-22T16:36:09.206Z,-1.10
2023-01-22T16:38:37.379Z,-1.10
2023-01-22T16:41:15.752Z,-1.00
2023-01-22T16:43:46.760Z,-1.10
2023-01-22T16:46:14.789Z,-1.00
2023-01-22T16:48:42.689Z,-1.20
2023-01-22T16:51:16.316Z,-1.20
2023-01-22T16:53:44.244Z,-1.20
2023-01-22T16:56:12.016Z,-1.30
2023-01-22T16:58:39.890Z,-1.40
2023-01-22T17:01:09.359Z,-1.40
2023-01-22T17:03:37.157Z,-1.40
2023-01-22T17:06:05.393Z,-1.40
2023-01-22T17:08:33.188Z,-1.30
2023-01-22T17:11:00.978Z,-1.30
2023-01-22T17:13:30.993Z,-1.20
2023-01-22T17:15:58.846Z,-1.20
2023-01-22T17:18:28.093Z,-1.00
2023-01-22T17:21:02.199Z,-1.30
2023-01-22T17:23:30.399Z,-1.30
2023-01-22T17:25:58.223Z,-1.30
2023-01-22T17:28:26.122Z,-1.30
2023-01-22T17:30:54.056Z,-1.40
2023-01-22T17:33:24.258Z,-1.40
2023-01-22T17:35:58.182Z,-1.40
2023-01-22T17:38:27.596Z,-1.40
2023-01-22T17:40:55.790Z,-1.30
2023-01-22T17:43:23.805Z,-1.20
2023-01-22T17:45:53.917Z,-1.40
2023-01-22T17:48:21.751Z,-1.30
2023-01-22T17:50:51.401Z,-1.30
2023-01-22T17:53:20.560Z,-1.30
2023-01-22T17:55:48.371Z,-1.40
2023-01-22T17:58:17.923Z,-1.40
2023-01-22T18:00:45.721Z,-1.40
2023-01-22T18:03:14.208Z,-1.30
2023-01-22T18:05:42.035Z,-1.40
2023-01-22T18:08:09.809Z,-1.50
2023-01-22T18:10:40.260Z,-1.10
2023-01-22T18:13:08.057Z,-1.30
2023-01-22T18:15:35.854Z,-1.20
2023-01-22T18:18:03.645Z,-1.40
2023-01-22T18:20:32.147Z,-1.40
2023-01-22T18:23:00.170Z,-1.40
2023-01-22T18:25:27.979Z,-1.50
2023-01-22T18:27:57.099Z,-1.60
2023-01-22T18:30:26.707Z,-1.50
2023-01-22T18:32:54.481Z,-1.60
2023-01-22T18:35:22.289Z,-1.50
2023-01-22T18:37:52.081Z,-1.40
2023-01-22T18:40:20.016Z,-1.50
2023-01-22T18:42:48.847Z,-1.50
2023-01-22T18:45:18.336Z,-1.60
2023-01-22T18:47:46.226Z,-1.70
2023-01-22T18:50:16.613Z,-1.70
2023-01-22T18:52:44.734Z,-1.60
2023-01-22T18:55:12.566Z,-1.70
2023-01-22T18:57:42.820Z,-1.80
2023-01-22T19:00:13.285Z,-1.80
2023-01-22T19:02:43.141Z,-1.80
2023-01-22T19:05:11.189Z,-1.60
2023-01-22T19:07:38.995Z,-1.50
2023-01-22T19:10:07.885Z,-1.40
2023-01-22T19:12:35.677Z,-1.50
2023-01-22T19:15:03.480Z,-1.70
2023-01-22T19:17:31.317Z,-1.80
2023-01-22T19:20:01.411Z,-1.80
2023-01-22T19:22:29.245Z,-1.70
2023-01-22T19:24:57.779Z,-1.70
2023-01-22T19:27:25.686Z,-1.80
2023-01-22T19:29:55.091Z,-1.90
2023-01-22T19:32:27.686Z,-1.80
2023-01-22T19:34:55.541Z,-1.80
2023-01-22T19:37:25.139Z,-1.60
2023-01-22T19:39:53.089Z,-1.80
2023-01-22T19:42:20.904Z,-1.80
2023-01-22T19:44:48.745Z,-1.80
2023-01-22T19:47:16.556Z,-1.90
2023-01-22T19:49:44.404Z,-1.90
2023-01-22T19:52:13.284Z,-1.90
2023-01-22T19:54:47.277Z,-1.90
2023-01-22T19:57:15.296Z,-1.90
2023-01-22T19:59:43.415Z,-1.70
2023-01-22T20:02:14.083Z,-1.80
2023-01-22T20:04:41.945Z,-1.80
2023-01-22T20:07:09.762Z,-1.90
2023-01-22T20:09:37.937Z,-2.10
2023-01-22T20:12:08.708Z,-2.20
2023-01-22T20:14:38.985Z,-2.20
2023-01-22T20:17:06.952Z,-2.20
2023-01-22T20:19:38.070Z,-2.20
2023-01-22T20:22:07.123Z,-2.30
2023-01-22T20:24:35.106Z,-2.40
2023-01-22T20:27:02.920Z,-2.40
2023-01-22T20:29:32.057Z,-2.60
2023-01-22T20:32:00.180Z,-2.70
2023-01-22T20:34:28.020Z,-2.70
2023-01-22T20:36:55.820Z,-2.80
2023-01-22T20:39:23.644Z,-2.80
2023-01-22T20:41:51.542Z,-2.90
2023-01-22T20:44:19.573Z,-2.80
2023-01-22T20:46:48.831Z,-2.90
2023-01-22T20:49:16.718Z,-3.00
2023-01-22T20:51:44.546Z,-3.10
2023-01-22T20:54:12.366Z,-3.20
2023-01-22T20:56:40.256Z,-3.20
2023-01-22T20:59:09.205Z,-3.30
2023-01-22T21:01:37.170Z,-3.30
2023-01-22T21:04:06.474Z,-3.20
2023-01-22T21:06:35.288Z,-3.20
2023-01-22T21:09:03.623Z,-3.30
2023-01-22T21:11:32.044Z,-3.30
2023-01-22T21:14:00.626Z,-3.40
2023-01-22T21:16:29.685Z,-3.40
2023-01-22T21:18:58.087Z,-3.40
2023-01-22T21:21:27.498Z,-3.50
2023-01-22T21:23:56.151Z,-3.50
2023-01-22T21:26:26.650Z,-3.50
2023-01-22T21:28:55.407Z,-3.60
2023-01-22T21:31:23.806Z,-3.60
2023-01-22T21:33:52.593Z,-3.60
2023-01-22T21:36:20.471Z,-3.70
2023-01-22T21:38:49.634Z,-3.80
2023-01-22T21:41:18.294Z,-3.80
2023-01-22T21:44:04.686Z,-3.90
2023-01-22T21:46:34.831Z,-4.00
2023-01-22T21:49:16.096Z,-4.10
2023-01-22T21:51:45.198Z,-4.20
2023-01-22T21:54:14.732Z,-4.20
2023-01-22T21:56:42.587Z,-4.20
2023-01-22T21:59:10.706Z,-4.30
2023-01-22T22:01:38.586Z,-4.40
2023-01-22T22:04:06.813Z,-4.40
2023-01-22T22:06:34.861Z,-4.50
2023-01-22T22:09:04.140Z,-4.50
2023-01-22T22:11:33.334Z,-4.40
2023-01-22T22:14:01.195Z,-4.50
2023-01-22T22:16:29.016Z,-4.40
2023-01-22T22:18:57.408Z,-4.40
2023-01-22T22:21:25.207Z,-4.50
2023-01-22T22:23:53.002Z,-4.60
2023-01-22T22:26:20.784Z,-4.60
2023-01-22T22:28:49.935Z,-4.60
2023-01-22T22:31:17.925Z,-4.70
2023-01-22T22:33:46.381Z,-4.80
2023-01-22T22:36:15.187Z,-4.90
2023-01-22T22:38:43.058Z,-4.90
2023-01-22T22:41:12.300Z,-4.90
2023-01-22T22:43:40.948Z,-4.90
2023-01-22T22:46:13.613Z,-5.00
2023-01-22T22:48:41.491Z,-5.10
2023-01-22T22:51:12.698Z,-5.10
2023-01-22T22:53:40.645Z,-5.20
2023-01-22T22:56:09.294Z,-5.20
2023-01-22T22:58:37.200Z,-5.40
2023-01-22T23:01:10.437Z,-5.40
2023-01-22T23:03:38.500Z,-5.30
2023-01-22T23:06:08.288Z,-5.20
2023-01-22T23:08:37.073Z,-5.30
2023-01-22T23:11:05.839Z,-5.20
2023-01-22T23:13:33.798Z,-5.30
2023-01-22T23:16:02.250Z,-5.50
2023-01-22T23:18:31.363Z,-5.50
2023-01-22T23:20:59.241Z,-5.60
2023-01-22T23:23:27.007Z,-5.60
2023-01-22T23:25:54.782Z,-5.80
2023-01-22T23:28:22.540Z,-5.60
2023-01-22T23:30:50.529Z,-5.70
2023-01-22T23:33:18.321Z,-5.60
2023-01-22T23:35:47.431Z,-5.50
2023-01-22T23:38:15.199Z,-5.50
2023-01-22T23:40:42.969Z,-5.20
2023-01-22T23:43:11.612Z,-5.20
2023-01-22T23:45:39.613Z,-5.20
2023-01-22T23:48:07.534Z,-5.30
2023-01-22T23:50:35.317Z,-5.50
2023-01-22T23:53:04.402Z,-5.40
2023-01-22T23:55:32.534Z,-5.60
2023-01-22T23:58:00.358Z,-4.70
